Time;durP1;ratioP1;P1;durP2;ratioP2;P2;SDS_P1;SDS_P2;PMS_P1;PMS_P2;Temp;Humidity;BMP_temperature;BMP_pressure;BME280_temperature;BME280_humidity;BME280_pressure;Samples;Min_cycle;Max_cycle;Signal;HPM_P1;HPM_P2
2022/06/15 00:00:37;;;;;;;6.38;3.60;;;;;;;;;;7330015;19;162425;-17
2022/06/15 00:03:09;;;;;;;5.13;3.42;;;;;;;;;;7330489;19;154048;-17
2022/06/15 00:05:42;;;;;;;5.47;3.42;;;;;;;;;;7328073;19;153590;-17
2022/06/15 00:08:14;;;;;;;8.98;3.40;;;;;;;;;;7330080;19;161832;-18
2022/06/15 00:10:48;;;;;;;5.00;3.93;;;;;;;;;;7330175;19;162219;-17
2022/06/15 00:13:19;;;;;;;7.30;3.45;;;;;;;;;;7330353;19;154061;-17
2022/06/15 00:15:51;;;;;;;7.30;3.65;;;;;;;;;;7328947;19;153590;-17
2022/06/15 00:18:26;;;;;;;7.70;3.47;;;;;;;;;;7330148;19;162003;-18
2022/06/15 00:20:59;;;;;;;5.18;3.83;;;;;;;;;;7328820;19;162610;-18
2022/06/15 00:23:33;;;;;;;6.15;2.95;;;;;;;;;;7329752;19;154285;-18
2022/06/15 00:26:08;;;;;;;5.30;3.22;;;;;;;;;;7327804;19;153177;-17
2022/06/15 00:28:41;;;;;;;4.97;3.08;;;;;;;;;;7330127;19;162139;-17
2022/06/15 00:31:13;;;;;;;5.60;3.70;;;;;;;;;;7329806;19;162404;-17
2022/06/15 00:33:45;;;;;;;6.00;3.47;;;;;;;;;;7330351;19;153680;-17
2022/06/15 00:36:19;;;;;;;5.25;3.42;;;;;;;;;;7330037;19;153606;-19
2022/06/15 00:38:54;;;;;;;5.38;3.38;;;;;;;;;;7328586;19;161891;-17
2022/06/15 00:41:32;;;;;;;6.60;3.60;;;;;;;;;;7329089;19;162502;-18
2022/06/15 00:44:06;;;;;;;4.60;3.17;;;;;;;;;;7329725;19;154345;-17
2022/06/15 00:46:42;;;;;;;5.32;3.22;;;;;;;;;;7328488;19;153854;-17
2022/06/15 00:49:19;;;;;;;4.50;3.08;;;;;;;;;;7329429;19;161824;-18
2022/06/15 00:51:55;;;;;;;7.90;3.47;;;;;;;;;;7329178;19;162386;-17
2022/06/15 00:54:27;;;;;;;4.07;3.50;;;;;;;;;;7331110;19;154068;-17
2022/06/15 00:57:05;;;;;;;5.70;3.17;;;;;;;;;;7334965;19;153900;-17
2022/06/15 00:59:41;;;;;;;6.63;3.55;;;;;;;;;;7335749;19;162073;-18
2022/06/15 01:02:14;;;;;;;5.90;3.50;;;;;;;;;;7335563;19;162428;-17
2022/06/15 01:04:50;;;;;;;4.83;2.97;;;;;;;;;;7334425;19;154285;-18
2022/06/15 01:07:36;;;;;;;7.20;3.67;;;;;;;;;;7336011;19;153505;-17
2022/06/15 01:10:16;;;;;;;5.38;3.15;;;;;;;;;;7335548;19;161807;-17
2022/06/15 01:13:02;;;;;;;5.18;3.65;;;;;;;;;;7334054;19;162503;-17
2022/06/15 01:15:42;;;;;;;6.35;3.75;;;;;;;;;;7334852;19;154076;-17
2022/06/15 01:18:31;;;;;;;4.82;3.15;;;;;;;;;;7335603;19;153990;-17
2022/06/15 01:21:20;;;;;;;6.15;3.90;;;;;;;;;;7334914;19;161773;-18
2022/06/15 01:24:30;;;;;;;6.97;3.47;;;;;;;;;;7334807;19;162350;-17
2022/06/15 01:27:43;;;;;;;5.32;3.58;;;;;;;;;;7332850;19;154002;-17
2022/06/15 01:30:39;;;;;;;7.20;3.42;;;;;;;;;;7335393;19;153940;-16
2022/06/15 01:33:21;;;;;;;4.50;3.47;;;;;;;;;;7334841;19;162011;-17
2022/06/15 01:36:04;;;;;;;3.67;3.22;;;;;;;;;;7334878;19;162694;-17
2022/06/15 01:38:45;;;;;;;4.60;3.15;;;;;;;;;;7334073;19;153788;-17
2022/06/15 01:41:22;;;;;;;5.38;3.33;;;;;;;;;;7334618;19;153447;-17
2022/06/15 01:43:59;;;;;;;3.45;3.10;;;;;;;;;;7333138;19;162065;-17
2022/06/15 01:46:34;;;;;;;5.63;3.65;;;;;;;;;;7331347;19;162525;-17
2022/06/15 01:49:08;;;;;;;3.92;3.15;;;;;;;;;;7333249;19;154023;-17
2022/06/15 01:51:45;;;;;;;3.78;3.25;;;;;;;;;;7337733;19;153622;-17
2022/06/15 01:54:23;;;;;;;4.80;3.63;;;;;;;;;;7332957;19;162186;-17
2022/06/15 01:56:59;;;;;;;3.47;2.85;;;;;;;;;;7333042;19;162508;-16
2022/06/15 01:59:36;;;;;;;4.18;3.00;;;;;;;;;;7333288;19;153981;-17
2022/06/15 02:02:21;;;;;;;4.30;3.10;;;;;;;;;;7333084;19;153560;-17
2022/06/15 02:05:05;;;;;;;5.63;3.40;;;;;;;;;;7332694;19;161735;-17
2022/06/15 02:07:48;;;;;;;4.65;2.80;;;;;;;;;;7330835;19;162203;-16
2022/06/15 02:10:25;;;;;;;3.33;3.03;;;;;;;;;;7333949;19;154071;-18
2022/06/15 02:13:02;;;;;;;3.83;3.28;;;;;;;;;;7332535;19;153685;-16
2022/06/15 02:15:39;;;;;;;5.28;3.30;;;;;;;;;;7332606;19;161835;-17
2022/06/15 02:18:18;;;;;;;4.88;2.85;;;;;;;;;;7332276;19;162355;-17
2022/06/15 02:20:54;;;;;;;5.50;3.42;;;;;;;;;;7333876;19;153803;-17
2022/06/15 02:23:28;;;;;;;3.72;2.90;;;;;;;;;;7332597;19;153616;-17
2022/06/15 02:26:01;;;;;;;4.45;3.20;;;;;;;;;;7331166;19;162142;-17
2022/06/15 02:28:36;;;;;;;3.63;2.88;;;;;;;;;;7333072;19;163845;-17
2022/06/15 02:31:08;;;;;;;4.22;3.38;;;;;;;;;;7332022;19;154304;-17
2022/06/15 02:33:51;;;;;;;3.80;3.40;;;;;;;;;;7331828;19;153424;-17
2022/06/15 02:36:24;;;;;;;3.28;2.75;;;;;;;;;;7331600;19;162217;-17
2022/06/15 02:38:55;;;;;;;5.10;2.87;;;;;;;;;;7332854;19;162405;-17
2022/06/15 02:41:32;;;;;;;4.25;3.28;;;;;;;;;;7332012;19;154051;-17
2022/06/15 02:44:09;;;;;;;3.72;2.65;;;;;;;;;;7331812;19;153666;-17
2022/06/15 02:46:44;;;;;;;4.57;3.28;;;;;;;;;;7330290;19;161876;-16
2022/06/15 02:49:18;;;;;;;3.45;2.78;;;;;;;;;;7331346;19;162447;-17
2022/06/15 02:51:54;;;;;;;3.90;3.03;;;;;;;;;;7331582;19;154065;-17
2022/06/15 02:54:28;;;;;;;3.40;2.97;;;;;;;;;;7331260;19;153497;-17
2022/06/15 02:57:08;;;;;;;4.63;3.60;;;;;;;;;;7331092;19;161896;-17
2022/06/15 02:59:40;;;;;;;4.23;3.10;;;;;;;;;;7331167;19;162530;-16
2022/06/15 03:02:14;;;;;;;4.03;3.20;;;;;;;;;;7331523;19;154339;-17
2022/06/15 03:04:53;;;;;;;4.45;2.85;;;;;;;;;;7331389;19;153688;-17
2022/06/15 03:07:26;;;;;;;3.92;2.92;;;;;;;;;;7329062;19;161954;-17
2022/06/15 03:10:00;;;;;;;3.58;2.72;;;;;;;;;;7330787;19;162765;-17
2022/06/15 03:12:32;;;;;;;3.03;2.73;;;;;;;;;;7330863;19;155651;-17
2022/06/15 03:15:03;;;;;;;3.40;3.00;;;;;;;;;;7330538;19;153500;-16
2022/06/15 03:17:35;;;;;;;4.38;3.35;;;;;;;;;;7330229;19;161930;-17
2022/06/15 03:20:13;;;;;;;3.75;3.05;;;;;;;;;;7330775;19;162678;-16
2022/06/15 03:22:48;;;;;;;4.07;2.97;;;;;;;;;;7330915;19;154402;-17
2022/06/15 03:25:24;;;;;;;4.65;3.63;;;;;;;;;;7330731;19;153547;-16
2022/06/15 03:28:01;;;;;;;3.50;3.13;;;;;;;;;;7327768;19;161925;-18
2022/06/15 03:30:35;;;;;;;4.35;2.55;;;;;;;;;;7330197;19;162599;-17
2022/06/15 03:33:10;;;;;;;4.25;3.20;;;;;;;;;;7330467;19;154312;-17
2022/06/15 03:35:47;;;;;;;3.40;3.10;;;;;;;;;;7330487;19;153592;-17
2022/06/15 03:38:24;;;;;;;4.70;2.80;;;;;;;;;;7329980;19;161820;-17
2022/06/15 03:41:35;;;;;;;3.15;2.83;;;;;;;;;;7330724;19;162827;-16
2022/06/15 03:44:07;;;;;;;3.08;2.75;;;;;;;;;;7332745;19;154320;-17
2022/06/15 03:46:38;;;;;;;4.32;3.20;;;;;;;;;;7329374;19;153507;-15
2022/06/15 03:49:16;;;;;;;5.15;3.42;;;;;;;;;;7329601;19;161918;-17
2022/06/15 03:51:52;;;;;;;4.35;3.40;;;;;;;;;;7330083;19;162179;-17
2022/06/15 03:54:23;;;;;;;4.30;2.97;;;;;;;;;;7331135;19;154365;-17
2022/06/15 03:56:56;;;;;;;3.58;3.05;;;;;;;;;;7329683;19;153842;-17
2022/06/15 03:59:34;;;;;;;3.63;2.83;;;;;;;;;;7333791;19;161812;-17
2022/06/15 04:02:20;;;;;;;3.85;3.13;;;;;;;;;;7329437;19;162812;-19
2022/06/15 04:04:52;;;;;;;5.53;3.72;;;;;;;;;;7329876;19;154062;-17
2022/06/15 04:10:14;;;;;;;5.20;3.67;;;;;;;;;;7329071;19;162351;-16
2022/06/15 04:12:46;;;;;;;3.75;3.05;;;;;;;;;;7329093;19;162371;-16
2022/06/15 04:15:18;;;;;;;3.63;3.08;;;;;;;;;;7328620;19;154260;-17
2022/06/15 04:17:56;;;;;;;3.65;3.10;;;;;;;;;;7329125;19;153535;-16
2022/06/15 04:20:36;;;;;;;4.18;3.38;;;;;;;;;;7328818;19;162014;-17
2022/06/15 04:23:32;;;;;;;4.03;3.10;;;;;;;;;;7328747;19;162461;-17
2022/06/15 04:26:06;;;;;;;3.90;3.00;;;;;;;;;;7328978;19;154277;-16
2022/06/15 04:28:44;;;;;;;3.42;3.13;;;;;;;;;;7325456;19;153863;-16
2022/06/15 04:31:21;;;;;;;4.70;3.17;;;;;;;;;;7328530;19;162042;-17
2022/06/15 04:33:53;;;;;;;3.17;2.85;;;;;;;;;;7328415;19;162856;-17
2022/06/15 04:36:27;;;;;;;3.40;3.10;;;;;;;;;;7328755;19;154412;-17
2022/06/15 04:39:05;;;;;;;5.20;3.13;;;;;;;;;;7328527;19;153731;-17
2022/06/15 04:41:42;;;;;;;3.92;2.90;;;;;;;;;;7328014;19;162080;-16
2022/06/15 04:44:15;;;;;;;4.22;3.03;;;;;;;;;;7329352;19;162520;-16
2022/06/15 04:46:52;;;;;;;3.20;2.80;;;;;;;;;;7328132;19;154160;-16
2022/06/15 04:49:26;;;;;;;5.50;3.15;;;;;;;;;;7328135;19;154045;-18
2022/06/15 04:51:57;;;;;;;3.70;3.03;;;;;;;;;;7327716;19;161781;-17
2022/06/15 04:54:32;;;;;;;5.57;3.60;;;;;;;;;;7327741;19;162374;-18
2022/06/15 04:57:07;;;;;;;3.10;2.75;;;;;;;;;;7327984;19;154024;-18
2022/06/15 04:59:40;;;;;;;3.33;3.03;;;;;;;;;;7327805;19;153632;-18
2022/06/15 05:02:17;;;;;;;3.30;3.05;;;;;;;;;;7327589;19;161934;-18
2022/06/15 05:04:49;;;;;;;3.80;2.80;;;;;;;;;;7327410;19;162434;-18
2022/06/15 05:07:22;;;;;;;3.30;3.00;;;;;;;;;;7327132;19;154867;-18
2022/06/15 05:10:00;;;;;;;3.45;2.92;;;;;;;;;;7328209;19;153560;-18
2022/06/15 05:12:31;;;;;;;4.55;3.28;;;;;;;;;;7323471;19;162090;-18
2022/06/15 05:15:02;;;;;;;4.20;3.25;;;;;;;;;;7326310;19;162489;-17
2022/06/15 05:17:35;;;;;;;;;;;;;;;;;;7326866;19;154013;-17
2022/06/15 05:20:08;;;;;;;3.50;3.08;;;;;;;;;;7326495;19;153340;-17
2022/06/15 05:22:42;;;;;;;3.83;3.03;;;;;;;;;;7326124;19;162490;-17
2022/06/15 05:25:18;;;;;;;4.25;2.92;;;;;;;;;;7325792;19;162358;-17
2022/06/15 05:27:51;;;;;;;4.25;3.22;;;;;;;;;;7330240;19;154064;-17
2022/06/15 05:30:23;;;;;;;6.80;5.10;;;;;;;;;;7328072;19;153723;-17
2022/06/15 05:32:54;;;;;;;10.90;5.13;;;;;;;;;;7327629;19;162632;-17
2022/06/15 05:35:25;;;;;;;11.80;7.03;;;;;;;;;;7326224;19;162563;-17
2022/06/15 05:37:56;;;;;;;11.15;5.78;;;;;;;;;;7326452;19;153642;-17
2022/06/15 05:40:30;;;;;;;11.20;6.03;;;;;;;;;;7326291;19;153875;-17
2022/06/15 05:43:01;;;;;;;10.23;6.45;;;;;;;;;;7332439;19;161949;-17
2022/06/15 05:45:34;;;;;;;11.68;6.43;;;;;;;;;;7332598;19;162472;-17
2022/06/15 05:48:06;;;;;;;11.07;6.95;;;;;;;;;;7332574;19;154132;-17
2022/06/15 05:50:41;;;;;;;9.55;6.40;;;;;;;;;;7333033;19;154361;-17
2022/06/15 05:53:19;;;;;;;12.98;6.38;;;;;;;;;;7332474;19;161892;-16
2022/06/15 05:55:53;;;;;;;13.23;6.15;;;;;;;;;;7333617;19;162491;-17
2022/06/15 05:58:24;;;;;;;10.30;5.93;;;;;;;;;;7335567;19;154093;-17
2022/06/15 06:00:55;;;;;;;10.45;6.53;;;;;;;;;;7338806;19;153617;-16
2022/06/15 06:03:26;;;;;;;12.02;5.88;;;;;;;;;;7333478;19;161793;-16
2022/06/15 06:05:57;;;;;;;13.43;6.32;;;;;;;;;;7333630;19;162341;-16
2022/06/15 06:08:29;;;;;;;15.50;5.78;;;;;;;;;;7333092;19;154176;-16
2022/06/15 06:11:02;;;;;;;12.43;6.13;;;;;;;;;;7333821;19;153631;-17
2022/06/15 06:13:33;;;;;;;12.65;6.22;;;;;;;;;;7333317;19;161556;-17
2022/06/15 06:16:05;;;;;;;14.73;5.57;;;;;;;;;;7331656;19;162411;-16
2022/06/15 06:18:36;;;;;;;8.93;6.07;;;;;;;;;;7333276;19;154137;-17
2022/06/15 06:21:08;;;;;;;9.30;5.97;;;;;;;;;;7333507;19;153653;-18
2022/06/15 06:23:39;;;;;;;13.32;6.63;;;;;;;;;;7332994;19;161946;-17
2022/06/15 06:26:21;;;;;;;9.80;6.03;;;;;;;;;;7332593;19;163939;-18
2022/06/15 06:28:53;;;;;;;11.48;6.32;;;;;;;;;;7332406;19;154093;-18
2022/06/15 06:31:24;;;;;;;11.55;6.13;;;;;;;;;;7331902;19;154568;-18
2022/06/15 06:33:56;;;;;;;10.50;6.07;;;;;;;;;;7332869;19;161819;-17
2022/06/15 06:36:31;;;;;;;7.18;5.43;;;;;;;;;;7332563;19;162654;-18
2022/06/15 06:39:07;;;;;;;10.27;5.07;;;;;;;;;;7332910;19;154033;-17
2022/06/15 06:41:42;;;;;;;8.63;4.68;;;;;;;;;;7332477;19;153593;-17
2022/06/15 06:44:14;;;;;;;20.73;5.68;;;;;;;;;;7332307;19;162662;-18
2022/06/15 06:46:49;;;;;;;10.15;5.55;;;;;;;;;;7332205;19;162481;-18
2022/06/15 06:49:21;;;;;;;8.23;5.32;;;;;;;;;;7330150;19;154070;-18
2022/06/15 06:51:52;;;;;;;10.90;5.90;;;;;;;;;;7330998;19;153529;-18
2022/06/15 06:54:25;;;;;;;22.80;6.57;;;;;;;;;;7331868;19;162026;-16
2022/06/15 06:56:59;;;;;;;18.20;6.97;;;;;;;;;;7331945;19;161623;-16
2022/06/15 06:59:31;;;;;;;10.90;5.28;;;;;;;;;;7332110;19;154105;-16
2022/06/15 07:02:02;;;;;;;12.02;6.03;;;;;;;;;;7332008;19;153886;-15
2022/06/15 07:04:33;;;;;;;12.82;6.35;;;;;;;;;;7331487;19;161759;-16
2022/06/15 07:07:04;;;;;;;11.95;5.93;;;;;;;;;;7331650;19;162549;-16
2022/06/15 07:09:36;;;;;;;8.90;4.90;;;;;;;;;;7330973;19;154044;-16
2022/06/15 07:12:10;;;;;;;12.00;5.40;;;;;;;;;;7331955;19;153566;-16
2022/06/15 07:14:42;;;;;;;14.00;5.45;;;;;;;;;;7330302;19;161927;-16
2022/06/15 07:17:13;;;;;;;11.38;5.70;;;;;;;;;;7328423;19;162594;-17
2022/06/15 07:19:46;;;;;;;11.60;6.15;;;;;;;;;;7331504;19;154011;-16
2022/06/15 07:22:17;;;;;;;9.23;5.40;;;;;;;;;;7331486;19;153596;-17
2022/06/15 07:24:48;;;;;;;13.10;5.00;;;;;;;;;;7331132;19;161888;-16
2022/06/15 07:27:22;;;;;;;10.18;5.32;;;;;;;;;;7330804;19;162424;-17
2022/06/15 07:29:55;;;;;;;12.95;5.93;;;;;;;;;;7329650;19;153910;-17
2022/06/15 07:32:27;;;;;;;17.42;6.88;;;;;;;;;;7330074;19;153691;-19
2022/06/15 07:34:58;;;;;;;17.02;7.28;;;;;;;;;;7330634;19;161902;-16
2022/06/15 07:37:29;;;;;;;17.90;7.63;;;;;;;;;;7330489;19;162522;-16
2022/06/15 07:40:22;;;;;;;16.95;6.70;;;;;;;;;;7330830;19;154283;-17
2022/06/15 07:43:00;;;;;;;12.73;5.78;;;;;;;;;;7329769;19;153761;-17
2022/06/15 07:45:32;;;;;;;13.95;6.68;;;;;;;;;;7329960;19;161890;-17
2022/06/15 07:50:47;;;;;;;12.70;6.60;;;;;;;;;;7328611;19;154408;-17
2022/06/15 07:53:18;;;;;;;13.48;7.20;;;;;;;;;;7330163;19;153595;-17
2022/06/15 07:55:52;;;;;;;17.92;7.10;;;;;;;;;;7330305;19;162201;-17
2022/06/15 07:58:26;;;;;;;17.05;7.13;;;;;;;;;;7329129;19;162428;-17
2022/06/15 08:00:57;;;;;;;17.45;7.93;;;;;;;;;;7330602;19;154017;-18
2022/06/15 08:03:28;;;;;;;17.73;8.07;;;;;;;;;;7328189;19;153550;-17
2022/06/15 08:05:59;;;;;;;16.42;7.10;;;;;;;;;;7329719;19;162011;-18
2022/06/15 08:08:31;;;;;;;15.68;7.45;;;;;;;;;;7329969;19;162544;-18
2022/06/15 08:11:02;;;;;;;16.10;7.55;;;;;;;;;;7328147;19;154490;-17
2022/06/15 08:13:36;;;;;;;15.07;6.57;;;;;;;;;;7330587;19;153499;-18
2022/06/15 08:16:09;;;;;;;15.25;6.88;;;;;;;;;;7326779;19;162368;-18
2022/06/15 08:18:43;;;;;;;11.75;6.50;;;;;;;;;;7329460;19;162617;-17
2022/06/15 08:21:22;;;;;;;14.98;7.25;;;;;;;;;;7330015;19;153990;-18
2022/06/15 08:23:54;;;;;;;20.40;7.63;;;;;;;;;;7328985;19;153709;-17
2022/06/15 08:26:28;;;;;;;11.13;6.93;;;;;;;;;;7329171;19;161865;-18
2022/06/15 08:29:04;;;;;;;9.52;5.82;;;;;;;;;;7329339;19;162324;-18
2022/06/15 08:31:36;;;;;;;13.30;7.20;;;;;;;;;;7327137;19;154194;-17
2022/06/15 08:34:07;;;;;;;13.05;5.82;;;;;;;;;;7329377;19;153547;-18
2022/06/15 08:36:39;;;;;;;13.00;6.28;;;;;;;;;;7329012;19;161771;-16
2022/06/15 08:39:10;;;;;;;15.65;6.63;;;;;;;;;;7329103;19;162614;-18
2022/06/15 08:41:51;;;;;;;14.93;6.50;;;;;;;;;;7329241;19;154195;-18
2022/06/15 08:44:35;;;;;;;12.20;6.78;;;;;;;;;;7329182;19;154273;-18
2022/06/15 08:47:17;;;;;;;9.90;5.63;;;;;;;;;;7328755;19;161764;-16
2022/06/15 08:49:56;;;;;;;11.85;6.47;;;;;;;;;;7328349;19;162752;-16
2022/06/15 08:52:35;;;;;;;13.07;6.45;;;;;;;;;;7328822;19;154012;-16
2022/06/15 08:55:14;;;;;;;15.93;6.10;;;;;;;;;;7328788;19;153537;-16
2022/06/15 08:57:52;;;;;;;13.35;6.47;;;;;;;;;;7328373;19;161806;-16
2022/06/15 09:00:29;;;;;;;10.70;6.30;;;;;;;;;;7328307;19;162421;-16
2022/06/15 09:03:14;;;;;;;12.95;5.55;;;;;;;;;;7328793;19;154007;-17
2022/06/15 09:05:52;;;;;;;14.23;5.82;;;;;;;;;;7327452;19;153573;-16
2022/06/15 09:08:39;;;;;;;12.15;5.68;;;;;;;;;;7328042;19;162146;-16
2022/06/15 09:11:20;;;;;;;10.32;5.32;;;;;;;;;;7326569;19;162422;-17
2022/06/15 09:14:04;;;;;;;10.38;5.88;;;;;;;;;;7328266;19;154199;-16
2022/06/15 09:16:47;;;;;;;12.80;6.57;;;;;;;;;;7331292;19;153721;-16
2022/06/15 09:19:23;;;;;;;14.25;6.68;;;;;;;;;;7334769;19;161932;-17
2022/06/15 09:22:00;;;;;;;11.32;5.78;;;;;;;;;;7334561;19;162479;-16
2022/06/15 09:24:39;;;;;;;10.10;6.30;;;;;;;;;;7334802;19;154113;-17
2022/06/15 09:27:19;;;;;;;13.90;6.07;;;;;;;;;;7334820;19;153617;-16
2022/06/15 09:29:57;;;;;;;9.10;5.70;;;;;;;;;;7334443;19;161953;-16
2022/06/15 09:32:33;;;;;;;12.23;6.53;;;;;;;;;;7332041;19;162581;-16
2022/06/15 09:35:12;;;;;;;11.23;5.25;;;;;;;;;;7334708;19;154201;-16
2022/06/15 09:37:47;;;;;;;13.05;6.68;;;;;;;;;;7334512;19;153804;-17
2022/06/15 09:40:18;;;;;;;13.48;6.65;;;;;;;;;;7335067;19;161899;-16
2022/06/15 09:42:57;;;;;;;10.02;6.43;;;;;;;;;;7333863;19;162503;-16
2022/06/15 09:45:33;;;;;;;9.45;5.75;;;;;;;;;;7334353;19;154150;-16
2022/06/15 09:48:18;;;;;;;11.93;6.13;;;;;;;;;;7334229;19;153686;-17
2022/06/15 09:50:59;;;;;;;13.90;6.38;;;;;;;;;;7333347;19;161959;-16
2022/06/15 09:53:39;;;;;;;12.13;6.32;;;;;;;;;;7333704;19;162463;-17
2022/06/15 09:56:14;;;;;;;12.18;6.70;;;;;;;;;;7334082;19;154871;-17
2022/06/15 09:58:51;;;;;;;9.10;6.00;;;;;;;;;;7333831;19;153641;-17
2022/06/15 10:01:25;;;;;;;11.32;5.85;;;;;;;;;;7333424;19;161687;-16
2022/06/15 10:04:01;;;;;;;9.18;5.75;;;;;;;;;;7333458;19;162537;-16
2022/06/15 10:06:37;;;;;;;9.95;5.53;;;;;;;;;;7333810;19;154105;-16
2022/06/15 10:09:12;;;;;;;10.77;5.85;;;;;;;;;;7337995;19;153499;-16
2022/06/15 10:11:47;;;;;;;10.65;5.72;;;;;;;;;;7330997;19;161822;-17
2022/06/15 10:14:25;;;;;;;12.85;5.55;;;;;;;;;;7333180;19;162443;-17
2022/06/15 10:17:01;;;;;;;11.10;6.55;;;;;;;;;;7331169;19;154293;-17
2022/06/15 10:19:37;;;;;;;11.82;5.95;;;;;;;;;;7333360;19;153658;-18
2022/06/15 10:22:11;;;;;;;9.88;6.05;;;;;;;;;;7333021;19;161578;-17
2022/06/15 10:24:44;;;;;;;7.90;5.22;;;;;;;;;;7331531;19;162478;-16
2022/06/15 10:27:31;;;;;;;11.15;5.75;;;;;;;;;;7331532;19;154260;-17
2022/06/15 10:30:17;;;;;;;9.63;5.75;;;;;;;;;;7331888;19;153628;-16
2022/06/15 10:33:03;;;;;;;10.80;6.13;;;;;;;;;;7330529;19;161940;-16
2022/06/15 10:35:38;;;;;;;11.75;5.70;;;;;;;;;;7331499;19;162499;-17
2022/06/15 10:38:13;;;;;;;7.65;5.75;;;;;;;;;;7333077;19;154173;-17
2022/06/15 10:40:55;;;;;;;9.95;5.97;;;;;;;;;;7332919;19;153679;-17
2022/06/15 10:43:31;;;;;;;10.30;5.68;;;;;;;;;;7332380;19;161773;-17
2022/06/15 10:46:06;;;;;;;10.48;6.10;;;;;;;;;;7332320;19;162319;-17
2022/06/15 10:48:44;;;;;;;8.25;6.03;;;;;;;;;;7332329;19;154227;-17
2022/06/15 10:51:20;;;;;;;8.68;5.95;;;;;;;;;;7332147;19;153570;-17
2022/06/15 10:53:55;;;;;;;10.93;6.20;;;;;;;;;;7331716;19;161822;-17
2022/06/15 11:02:22;;;;;;;10.60;7.07;;;;;;;;;;7331398;19;153640;-17
2022/06/15 11:04:57;;;;;;;10.00;6.28;;;;;;;;;;7331926;19;161722;-16
2022/06/15 11:07:35;;;;;;;9.82;6.78;;;;;;;;;;7331698;19;162352;-16
2022/06/15 11:10:15;;;;;;;13.07;7.03;;;;;;;;;;7330975;19;154006;-16
2022/06/15 11:12:50;;;;;;;12.20;7.07;;;;;;;;;;7330124;19;154238;-17
2022/06/15 11:18:29;;;;;;;8.60;6.22;;;;;;;;;;7331108;19;162374;-17
2022/06/15 11:21:06;;;;;;;10.20;7.55;;;;;;;;;;7331752;19;154018;-16
2022/06/15 11:23:49;;;;;;;13.13;7.18;;;;;;;;;;7331563;19;153553;-16
2022/06/15 11:29:24;;;;;;;9.60;6.35;;;;;;;;;;7330904;19;163012;-17
2022/06/15 11:32:10;;;;;;;9.43;6.88;;;;;;;;;;7330592;19;153998;-17
2022/06/15 11:34:49;;;;;;;7.60;6.80;;;;;;;;;;7331235;19;153491;-18
2022/06/15 11:37:25;;;;;;;8.35;6.88;;;;;;;;;;7330544;19;161942;-18
2022/06/15 11:40:09;;;;;;;9.80;7.03;;;;;;;;;;7330360;19;162452;-17
2022/06/15 11:42:40;;;;;;;9.55;6.90;;;;;;;;;;7330837;19;154311;-17
2022/06/15 11:45:17;;;;;;;9.30;6.75;;;;;;;;;;7331977;19;153567;-17
2022/06/15 11:48:02;;;;;;;6.13;5.53;;;;;;;;;;7330435;19;162193;-17
2022/06/15 11:50:40;;;;;;;7.55;5.65;;;;;;;;;;7330237;19;162409;-18
2022/06/15 11:53:23;;;;;;;7.80;5.97;;;;;;;;;;7328985;19;154238;-18
2022/06/15 11:56:03;;;;;;;7.97;6.13;;;;;;;;;;7330669;19;153639;-17
2022/06/15 11:58:48;;;;;;;11.38;6.25;;;;;;;;;;7331930;19;161827;-17
2022/06/15 12:01:32;;;;;;;11.18;6.43;;;;;;;;;;7330130;19;162531;-17
2022/06/15 12:04:39;;;;;;;7.28;6.25;;;;;;;;;;7330590;19;154003;-17
2022/06/15 12:07:21;;;;;;;8.15;6.15;;;;;;;;;;7334173;19;154177;-17
2022/06/15 12:10:05;;;;;;;7.40;5.90;;;;;;;;;;7329598;19;161830;-18
2022/06/15 12:12:46;;;;;;;8.82;6.18;;;;;;;;;;7328918;19;162461;-18
2022/06/15 12:15:34;;;;;;;9.20;6.07;;;;;;;;;;7330664;19;154218;-17
2022/06/15 12:18:23;;;;;;;9.02;5.90;;;;;;;;;;7333676;19;132377;-16
2022/06/15 12:21:01;;;;;;;8.32;5.78;;;;;;;;;;7329588;19;161804;-18
2022/06/15 12:23:56;;;;;;;8.57;5.57;;;;;;;;;;7328155;19;162711;-18
2022/06/15 12:26:38;;;;;;;7.72;6.20;;;;;;;;;;7329810;19;154019;-18
2022/06/15 12:29:22;;;;;;;9.07;5.90;;;;;;;;;;7329667;19;153410;-18
2022/06/15 12:32:09;;;;;;;8.35;5.28;;;;;;;;;;7329130;19;161836;-18
2022/06/15 12:34:52;;;;;;;9.38;5.18;;;;;;;;;;7329215;19;162417;-18
2022/06/15 12:37:30;;;;;;;7.27;5.27;;;;;;;;;;7329453;19;154234;-17
2022/06/15 12:40:14;;;;;;;7.65;5.80;;;;;;;;;;7329338;19;153530;-17
2022/06/15 12:42:49;;;;;;;12.18;5.28;;;;;;;;;;7329167;19;161808;-17
2022/06/15 12:45:26;;;;;;;6.55;4.70;;;;;;;;;;7328783;19;162660;-18
2022/06/15 12:48:01;;;;;;;12.48;5.63;;;;;;;;;;7331261;19;154033;-18
2022/06/15 12:50:40;;;;;;;10.77;5.20;;;;;;;;;;7329798;19;153647;-18
2022/06/15 12:53:27;;;;;;;10.93;5.57;;;;;;;;;;7334762;19;162050;-18
2022/06/15 12:56:12;;;;;;;9.63;4.70;;;;;;;;;;7335364;19;162870;-18
2022/06/15 12:58:57;;;;;;;15.23;4.90;;;;;;;;;;7334481;19;154023;-17
2022/06/15 13:01:38;;;;;;;11.85;5.45;;;;;;;;;;7334419;19;153835;-18
2022/06/15 13:04:19;;;;;;;8.57;5.38;;;;;;;;;;7335011;19;161782;-18
2022/06/15 13:07:18;;;;;;;9.57;5.20;;;;;;;;;;7332458;19;162331;-18
2022/06/15 13:10:24;;;;;;;14.13;4.90;;;;;;;;;;7332018;19;154438;-17
2022/06/15 13:13:01;;;;;;;10.82;5.85;;;;;;;;;;7333455;19;154598;-18
2022/06/15 13:15:37;;;;;;;11.63;5.25;;;;;;;;;;7333728;19;161824;-18
2022/06/15 13:18:14;;;;;;;7.90;5.05;;;;;;;;;;7333513;19;162626;-17
2022/06/15 13:21:01;;;;;;;5.25;4.63;;;;;;;;;;7333111;19;154179;-18
2022/06/15 13:23:39;;;;;;;7.05;4.75;;;;;;;;;;7338619;19;153468;-18
2022/06/15 13:26:15;;;;;;;8.48;4.75;;;;;;;;;;7334804;19;161997;-16
2022/06/15 13:29:07;;;;;;;11.38;4.85;;;;;;;;;;7330568;19;162671;-17
2022/06/15 13:31:44;;;;;;;5.73;4.10;;;;;;;;;;7333260;19;153964;-17
2022/06/15 13:34:19;;;;;;;7.72;4.35;;;;;;;;;;7333344;19;153819;-18
2022/06/15 13:37:15;;;;;;;6.95;4.50;;;;;;;;;;7334458;19;161842;-19
2022/06/15 13:39:53;;;;;;;7.85;5.03;;;;;;;;;;7334006;19;162413;-16
2022/06/15 13:42:27;;;;;;;4.68;4.13;;;;;;;;;;7333027;19;154097;-17
2022/06/15 13:45:03;;;;;;;7.05;4.45;;;;;;;;;;7334265;19;153509;-17
2022/06/15 13:47:46;;;;;;;5.80;4.60;;;;;;;;;;7333908;19;161817;-17
2022/06/15 13:50:22;;;;;;;7.50;4.05;;;;;;;;;;7333891;19;162442;-17
2022/06/15 13:52:56;;;;;;;7.65;4.63;;;;;;;;;;7338141;19;153983;-17
2022/06/15 13:55:49;;;;;;;9.25;4.97;;;;;;;;;;7330539;19;153594;-17
2022/06/15 13:58:58;;;;;;;4.82;4.15;;;;;;;;;;7333361;19;161781;-17
2022/06/15 14:01:49;;;;;;;4.93;4.03;;;;;;;;;;7336040;19;162527;-17
2022/06/15 14:04:33;;;;;;;9.27;4.40;;;;;;;;;;7332652;19;154226;-19
2022/06/15 14:07:52;;;;;;;6.75;4.93;;;;;;;;;;7333683;19;153504;-19
2022/06/15 14:10:41;;;;;;;6.30;4.00;;;;;;;;;;7330288;19;162126;-15
2022/06/15 14:13:29;;;;;;;6.07;4.38;;;;;;;;;;7333022;19;162111;-15
2022/06/15 14:16:30;;;;;;;6.20;4.30;;;;;;;;;;7332014;19;153755;-16
2022/06/15 14:19:04;;;;;;;5.07;4.55;;;;;;;;;;7331223;19;153766;-16
2022/06/15 14:21:37;;;;;;;6.70;4.50;;;;;;;;;;7333029;19;161824;-16
2022/06/15 14:24:19;;;;;;;6.68;4.63;;;;;;;;;;7332647;19;162324;-16
2022/06/15 14:26:57;;;;;;;5.82;4.50;;;;;;;;;;7333319;19;154146;-16
2022/06/15 14:29:35;;;;;;;6.70;4.80;;;;;;;;;;7333125;19;153773;-17
2022/06/15 14:32:07;;;;;;;7.10;4.88;;;;;;;;;;7332617;19;161751;-18
2022/06/15 14:34:40;;;;;;;7.57;4.53;;;;;;;;;;7331254;19;162938;-16
2022/06/15 14:37:23;;;;;;;5.82;4.55;;;;;;;;;;7332974;19;154356;-16
2022/06/15 14:39:56;;;;;;;5.97;4.80;;;;;;;;;;7332712;19;153642;-16
2022/06/15 14:42:54;;;;;;;7.05;4.78;;;;;;;;;;7332352;19;162600;-16
2022/06/15 14:45:28;;;;;;;5.28;4.57;;;;;;;;;;7332242;19;163089;-16
2022/06/15 14:48:05;;;;;;;5.32;4.68;;;;;;;;;;7332776;19;153852;-20
2022/06/15 14:50:39;;;;;;;8.60;4.80;;;;;;;;;;7332707;19;153308;-16
2022/06/15 14:53:12;;;;;;;5.93;4.88;;;;;;;;;;7331911;19;161934;-16
2022/06/15 14:55:44;;;;;;;5.03;4.13;;;;;;;;;;7329844;19;162374;-16
2022/06/15 14:58:23;;;;;;;7.40;4.90;;;;;;;;;;7332121;19;154109;-17
2022/06/15 15:01:06;;;;;;;6.22;5.20;;;;;;;;;;7332062;19;153541;-17
2022/06/15 15:03:39;;;;;;;6.45;4.85;;;;;;;;;;7331007;19;162442;-17
2022/06/15 15:06:17;;;;;;;4.88;4.20;;;;;;;;;;7331772;19;162341;-17
2022/06/15 15:08:51;;;;;;;6.30;4.53;;;;;;;;;;7331754;19;154161;-17
2022/06/15 15:11:35;;;;;;;6.72;4.57;;;;;;;;;;7331673;19;153526;-17
2022/06/15 15:14:18;;;;;;;5.88;4.55;;;;;;;;;;7330257;19;162094;-18
2022/06/15 15:16:56;;;;;;;;;;;;;;;;;;7329715;19;162428;-17
2022/06/15 15:19:35;;;;;;;5.82;4.47;;;;;;;;;;7331915;19;154236;-17
2022/06/15 15:22:10;;;;;;;6.63;4.80;;;;;;;;;;7331290;19;153605;-17
2022/06/15 15:24:48;;;;;;;5.43;4.63;;;;;;;;;;7331071;19;161970;-17
2022/06/15 15:34:07;;;;;;;4.47;4.05;;;;;;;;;;7331169;19;162361;-18
2022/06/15 15:36:02;;;;;;;5.20;4.28;;;;;;;;;;7329195;19;162174;-18
2022/06/15 15:38:36;;;;;;;5.43;4.57;;;;;;;;;;7330811;19;162474;-18
2022/06/15 15:41:10;;;;;;;5.28;4.32;;;;;;;;;;7331457;19;153766;-16
2022/06/15 15:43:42;;;;;;;4.78;4.38;;;;;;;;;;7330983;19;153498;-19
2022/06/15 15:46:16;;;;;;;6.35;4.57;;;;;;;;;;7330468;19;161997;-19
2022/06/15 15:48:48;;;;;;;4.80;4.30;;;;;;;;;;7330818;19;162567;-18